Terminal Aerodrome Forecast
Issued by NWS

Home | Current Version | Previous Version | Text Only | Print | Product List | Glossary On
Versions: 1 2 3 4 5 6 7 8 9 10 11 12 13 14
432
FTUS44 KJAN 212340
TAFGTR
TAF
KGTR 212340Z 2200/2224 15008KT P6SM SCT030 SCT100
     FM220500 19009KT 5SM -TSRA BKN035CB
     FM220800 19008KT P6SM -RA OVC015
     FM221100 19008KT P6SM -RA OVC050
     FM221900 24011G17KT P6SM -RA OVC025=

USA.gov is the U.S. government's official web portal to all federal, state and local government web resources and services.